Weather observations for the past three days for
Otis Air National Guard Base
Imperial (Metric)
Date Time (edt) Wind (mph) Vis. (mi.) Weather Sky Cond. Temperature (ºF) Relative Humidity Wind Chill (°F) Heat Index (°F) Pressure Precipitation (in)
Air Dwpt 6 hour altimeter (in) sea level (mb) 1 hr 3 hr 6 hr
Max. Min.
07 23:55 NW 7 10.00 Fair CLR 48.2 30.2 50% 46 29.77 0.0
07 22:55 NW 8 10.00 Fair CLR 48.2 33.8 58% 45 29.78 0.0
07 21:55 NW 7 10.00 Fair CLR 48.2 33.8 58% 46 29.78 0.0
07 20:55 NW 6 10.00 Fair CLR 50 39.2 67% 48 29.75 0.0
07 19:56 SW 5 10.00 Fair CLR 51.8 42.8 72% 29.72 0.0
07 18:56 SW 12 10.00 Fair CLR 57.2 39.2 51% 29.71 0.0
07 17:56 SW 16 10.00 Fair CLR 59 37.4 45% 29.7 0.0
07 16:56 SW 17 10.00 Fair CLR 60.8 39.2 45% 29.69 0.0
07 15:56 SW 15 10.00 Fair CLR 60.8 42.8 52% 29.7 0.0
07 14:56 SW 12 10.00 Partly Cloudy FEW031 SCT050 60.8 46.4 59% 29.72 0.0
07 13:56 SW 10 10.00 Partly Cloudy FEW035 SCT050 60.8 44.6 55% 29.74 0.0
07 12:55 SW 5 10.00 Mostly Cloudy BKN033 BKN042 60.8 44.6 55% 29.75 0.0
07 11:56 W 9 10.00 Mostly Cloudy BKN029 57.2 44.6 63% 29.77 0.0
07 10:56 NW 7 10.00 Mostly Cloudy SCT017 BKN100 53.6 46.4 77% 29.78 0.0
07 09:56 NW 9 10.00 Overcast FEW031 OVC095 50 46.4 88% 47 29.79 0.0
07 08:56 NW 5 10.00 Light Rain FEW016 OVC070 48.2 46.4 94% 47 29.79 0.0
07 07:56 N 7 8.00 Light Rain BKN080 OVC065 48.2 46.4 94% 46 29.78 0.0
07 06:56 N 7 8.00 Light Rain SCT047 BKN065 OVC080 50 48.2 94% 48 29.76 0.0
07 05:45 NW 10 6.00 Light Rain Fog/Mist SCT008 BKN049 OVC070 51.8 51.8 100% 29.73 0.0
07 04:55 S 5 6.00 Light Rain Fog/Mist OVC004 51.8 51.8 100% 29.74 0.0
07 03:45 SW 6 2.50 Light Rain Fog/Mist OVC003 51.8 51.8 100% 29.72 0.0
07 02:55 SW 7 1.25 Fog/Mist OVC003 51.8 51.8 100% 29.74 0.0
07 01:55 SW 13 3.00 Fog/Mist OVC003 53.6 51.8 94% 29.74 0.0
07 00:55 SW 12 2.00 Fog/Mist OVC003 53.6 53.6 100% 29.76 0.0
06 23:55 SW 16 3.00 Fog/Mist OVC004 53.6 53.6 100% 29.77 0.0
06 22:45 SW 15 6.00 Fog/Mist OVC004 55.4 55.4 100% 29.77 0.0
06 21:55 SW 21 6.00 Fog/Mist and Breezy OVC006 57.2 55.4 94% 29.79 0.0
06 20:55 SW 20 6.00 Light Rain Fog/Mist OVC006 57.2 55.4 94% 29.79 0.0
06 19:55 S 22 1.25 Rain Fog/Mist and Breezy OVC006 57.2 55.4 94% 29.78 0.0
06 18:55 S 22 2.50 Rain Fog/Mist and Breezy BKN010 OVC015 57.2 55.4 94% 29.8 0.0
06 17:55 S 18 10.00 Overcast BKN029 BKN100 OVC110 60.8 55.4 83% 29.8 0.0
06 16:55 S 21 10.00 Light Rain and Breezy BKN032 BKN090 OVC110 62.6 55.4 77% 29.82 0.0
06 15:55 S 26 G 35 10.00 Overcast and Windy OVC030 62.6 53.6 73% 29.83 0.0
06 14:55 S 28 G 37 10.00 Overcast and Windy OVC030 64.4 53.6 68% 29.85 0.0
06 13:55 S 28 G 37 10.00 Fair and Windy CLR 68 55.4 64% 29.87 0.0
06 12:55 SW 26 G 41 10.00 Fair and Windy CLR 66.2 55.4 68% 29.89 0.0
06 11:55 S 24 G 36 10.00 Fair and Breezy CLR 66.2 55.4 68% 29.92 0.0
06 10:56 SW 23 G 30 10.00 Fair and Breezy CLR 66.2 55.4 68% 29.92 0.0
06 09:56 S 29 G 40 10.00 Fair and Windy CLR 66.2 55.4 68% 29.92 0.0
06 08:56 SW 25 G 35 10.00 Fair and Breezy CLR 64.4 55.4 73% 29.92 0.0
06 07:56 SW 30 G 37 10.00 Fair and Windy CLR 62.6 55.4 77% 29.93 0.0
06 06:56 SW 24 G 30 10.00 Fair and Breezy CLR 60.8 55.4 83% 29.93 0.0
06 05:56 SW 15 G 22 10.00 A Few Clouds FEW012 57.2 53.6 88% 29.94 0.0
06 04:56 SW 15 G 29 10.00 Overcast OVC012 57.2 53.6 88% 29.94 0.0
06 03:56 SW 24 G 30 10.00 Mostly Cloudy and Breezy BKN010 57.2 53.6 88% 29.94 0.0
06 02:56 SW 20 G 26 10.00 Overcast OVC010 57.2 53.6 88% 29.94 0.0
06 01:56 SW 15 G 30 10.00 Fair CLR 57.2 53.6 88% 29.95 0.0
06 00:56 SW 17 G 25 10.00 Fair CLR 57.2 53.6 88% 29.95 0.0
05 23:56 SW 21 G 29 10.00 Fair and Breezy CLR 57.2 53.6 88% 29.96 0.0
05 22:56 SW 23 G 30 10.00 Fair and Breezy CLR 59 53.6 82% 29.95 0.0
05 21:56 SW 18 G 25 10.00 Fair CLR 55.4 50 82% 29.95 0.0
05 20:56 SW 18 G 26 10.00 Fair CLR 57.2 46.4 67% 29.93 0.0
05 19:55 SW 26 10.00 Fair and Windy CLR 57.2 48.2 72% 29.9 0.0
05 18:55 SW 24 G 32 10.00 Fair and Breezy CLR 59 50 72% 29.88 0.0
05 17:55 SW 25 G 36 10.00 Fair and Breezy CLR 60.8 50 68% 29.87 0.0
05 16:55 SW 24 G 32 10.00 Fair and Breezy CLR 62.6 50 64% 29.87 0.0
05 15:55 S 28 10.00 Fair and Windy CLR 62.6 51.8 68% 29.88 0.0
05 14:55 SW 22 10.00 Fair and Breezy CLR 64.4 51.8 64% 29.89 0.0
05 13:55 S 22 10.00 Fair and Breezy CLR 64.4 51.8 64% 29.9 0.0
05 12:55 SW 22 10.00 Fair and Breezy CLR 64.4 51.8 64% 29.91 0.0
05 11:55 SW 17 10.00 Fair CLR 64.4 51.8 64% 29.92 0.0
05 10:56 S 18 10.00 Fair CLR 64.4 51.8 64% 29.92 0.0
05 09:56 SW 20 10.00 Fair CLR 60.8 51.8 72% 29.91 0.0
05 08:56 SW 17 10.00 Fair CLR 60.8 51.8 72% 29.91 0.0
05 07:56 SW 16 G 21 10.00 Fair CLR 59 51.8 77% 29.92 0.0
05 06:56 S 12 10.00 Fair CLR 53.6 48.2 82% 29.91 0.0
05 05:56 SW 10 10.00 Fair CLR 50 46.4 88% 46 29.91 0.0
05 04:56 SW 8 10.00 Fair CLR 48.2 46.4 94% 45 29.91 0.0
05 03:56 S 7 10.00 Fair CLR 50 46.4 88% 48 29.92 0.0
05 02:56 SW 12 10.00 Fair CLR 51.8 46.4 82% 29.91 0.0
05 01:56 SW 12 10.00 Fair CLR 51.8 46.4 82% 29.92 0.0
05 00:56 SW 12 10.00 Fair CLR 51.8 46.4 82% 29.92 0.0
Date Time (edt) Wind (mph) Vis. (mi.) Weather Sky Cond. Air Dwpt Max. Min. Relative Humidity Wind Chill (°F) Heat Index (°F) altimeter (in) sea level (mb) 1 hr 3 hr 6 hr
6 hour
Temperature (ºF) Pressure Precipitation (in)